GCLP METAR and TAF | Updated Today

GCLP METAR

Gran Canaria Airport

Observation time: 16 min. ago

GCLP 251930Z 02019KT 9999 FEW025 BKN033 20/15 Q1018 NOSIG

Need help? Read our tutorial on how to read METARs or read the parsed version below.

Gran Canaria Airport (GCLP) METAR

  • Weather conditions on Wed, 25 May 2022 19:30:00 +0000 (16 min. ago):
  • Present conditions: Dry
  • Clouds: A few at 762 meters; broken sky at 1006 meters
  • Visibility: Greater than 10 km
  • Wind: 20 degrees at 19 knots
  • Temperature: 20 celsius
  • Dew point: 15 celsius
  • Pressure: 1018 millibars
  • Remarks: None


Useful to know...

GCLP TAF

Gran Canaria Airport

TAF GCLP 251400Z 2515/2615 02023KT 9999 SCT030 TX24/2614Z TN18/2606Z PROB40 TEMPO 2515/2518 02023G33KT
Observation time: 5:46 hr. ago
Need help? Read our tutorial on how to read TAFs or read the parsed version below.

Parsed version of TAF for Gran Canaria Airport (GCLP)

  • From 25 May at 15:00 UTC, to day 26 of the month at 15:00 UTC
  • Clouds: Scattered at 914 meters
  • Visibility: Greater than 10 km
  • Wind: 20 degrees at 23
  • Expected to arise temporarily, from 25 May at 15:00 UTC, to day 25 of the month at 18:00 UTC
    Probability of 40%
  • Wind: 20 degrees at 23

Airports near GCLP

No airports found within 100nm radius.